Αρχική σελίδα
METAR-TAF:

METAR-TAF

Αεροδρόμια :

St. Francis, Κάνσας, Ηνωμένες Πολιτείες Αμερικής

γεωγραφικό πλάτος: 39-45-40N, γεωγραφικό μήκος: 101-47-45W, υψόμετρο: 1040 μ

Παρών καιρός

Η αναφορά έγινε 21 λεπτά πριν, στις 00:35 UTC
Άνεμος 8 kt από Ν/NA
Θερμοκρασία 15°C
Υγρασία 36%
Πίεση 1017 hPa
Ορατότητα: 16.1 χλμ
Καθαρός ουρανός

METAR: KSYF 220035Z AUTO 15008KT 10SM CLR 15/00 A3003 RMK AO2 T01510000

Χρόνος: 19:56 (00:56 UTC)


TAF: λείπει

Μετεωρολογικές αναφορές και προγνώσεις για περισσότερα από 4000 αεροδρόμια (δελτία METAR και TAF).

Οι διαθέσιμοι σταθμοί απεικονίζονται στο χάρτη με κίτρινες και κόκκινες κουκκίδες.

Μετακινήστε το ποντίκι πάνω από τις κουκκίδες για να δείτε το όνομα του σταθμού.

Στη συνέχεια, κάντε κλικ για να δείτε τις μετεωρολογικές αναφορές και τις προγνώσεις καιρού.

Για να αλλάξετε το χάρτη: κάντε κλικ στα πράσινα κουμπιά με τον μαύρο σταυρό για να ζουμάρετε, στο πράσινο κουμπί με την παύλα για να αφαιρέσετε το ζουμ ή στα πράσινα βέλη για να αντιπαραβάλλετε χάρτες.


METAR-TAF: